sensor_id;sensor_type;location;lat;lon;timestamp;P1;durP1;ratioP1;P2;durP2;ratioP2
8050;SDS011;4068;42.158;24.732;2024-02-28T00:01:51;23.03;;;7.93;;
8050;SDS011;4068;42.158;24.732;2024-02-28T00:04:17;21.83;;;8.20;;
8050;SDS011;4068;42.158;24.732;2024-02-28T00:06:43;16.70;;;7.23;;
8050;SDS011;4068;42.158;24.732;2024-02-28T00:09:12;18.92;;;8.32;;
8050;SDS011;4068;42.158;24.732;2024-02-28T00:11:43;19.45;;;7.97;;
8050;SDS011;4068;42.158;24.732;2024-02-28T00:14:14;16.17;;;8.17;;
8050;SDS011;4068;42.158;24.732;2024-02-28T00:16:43;22.83;;;8.43;;
8050;SDS011;4068;42.158;24.732;2024-02-28T00:19:09;19.08;;;7.97;;
8050;SDS011;4068;42.158;24.732;2024-02-28T00:21:37;22.40;;;8.90;;
8050;SDS011;4068;42.158;24.732;2024-02-28T00:24:03;17.37;;;8.90;;
8050;SDS011;4068;42.158;24.732;2024-02-28T00:26:28;19.30;;;8.07;;
8050;SDS011;4068;42.158;24.732;2024-02-28T00:28:54;22.80;;;8.50;;
8050;SDS011;4068;42.158;24.732;2024-02-28T00:31:19;19.10;;;8.80;;
8050;SDS011;4068;42.158;24.732;2024-02-28T00:33:46;20.53;;;8.40;;
8050;SDS011;4068;42.158;24.732;2024-02-28T00:36:12;23.70;;;8.70;;
8050;SDS011;4068;42.158;24.732;2024-02-28T00:38:38;20.57;;;8.67;;
8050;SDS011;4068;42.158;24.732;2024-02-28T00:41:03;21.83;;;8.68;;
8050;SDS011;4068;42.158;24.732;2024-02-28T00:43:29;26.33;;;8.70;;
8050;SDS011;4068;42.158;24.732;2024-02-28T00:45:54;18.00;;;8.10;;
8050;SDS011;4068;42.158;24.732;2024-02-28T00:48:20;25.60;;;9.27;;
8050;SDS011;4068;42.158;24.732;2024-02-28T00:50:47;20.30;;;9.00;;
8050;SDS011;4068;42.158;24.732;2024-02-28T00:53:12;29.27;;;9.60;;
8050;SDS011;4068;42.158;24.732;2024-02-28T00:55:38;21.17;;;8.53;;
8050;SDS011;4068;42.158;24.732;2024-02-28T00:58:03;19.07;;;8.33;;
8050;SDS011;4068;42.158;24.732;2024-02-28T01:00:29;23.73;;;8.37;;
8050;SDS011;4068;42.158;24.732;2024-02-28T01:02:54;15.80;;;8.03;;
8050;SDS011;4068;42.158;24.732;2024-02-28T01:05:19;19.70;;;8.25;;
8050;SDS011;4068;42.158;24.732;2024-02-28T01:07:45;19.15;;;8.75;;
8050;SDS011;4068;42.158;24.732;2024-02-28T01:10:10;21.95;;;8.40;;
8050;SDS011;4068;42.158;24.732;2024-02-28T01:12:36;20.48;;;8.13;;
8050;SDS011;4068;42.158;24.732;2024-02-28T01:15:02;20.80;;;8.60;;
8050;SDS011;4068;42.158;24.732;2024-02-28T01:17:28;28.80;;;8.93;;
8050;SDS011;4068;42.158;24.732;2024-02-28T01:19:54;27.97;;;8.40;;
8050;SDS011;4068;42.158;24.732;2024-02-28T01:22:19;27.20;;;8.13;;
8050;SDS011;4068;42.158;24.732;2024-02-28T01:24:45;22.43;;;7.80;;
8050;SDS011;4068;42.158;24.732;2024-02-28T01:27:10;17.07;;;7.20;;
8050;SDS011;4068;42.158;24.732;2024-02-28T01:29:36;20.03;;;8.37;;
8050;SDS011;4068;42.158;24.732;2024-02-28T01:32:02;19.83;;;7.93;;
8050;SDS011;4068;42.158;24.732;2024-02-28T01:34:27;20.03;;;7.87;;
8050;SDS011;4068;42.158;24.732;2024-02-28T01:36:53;20.00;;;8.23;;
8050;SDS011;4068;42.158;24.732;2024-02-28T01:39:18;18.90;;;8.37;;
8050;SDS011;4068;42.158;24.732;2024-02-28T01:41:53;20.33;;;7.13;;
8050;SDS011;4068;42.158;24.732;2024-02-28T01:44:19;19.03;;;8.17;;
8050;SDS011;4068;42.158;24.732;2024-02-28T01:46:45;26.63;;;8.83;;
8050;SDS011;4068;42.158;24.732;2024-02-28T01:49:11;19.47;;;7.80;;
8050;SDS011;4068;42.158;24.732;2024-02-28T01:51:37;28.77;;;8.37;;
8050;SDS011;4068;42.158;24.732;2024-02-28T01:54:03;21.77;;;7.80;;
8050;SDS011;4068;42.158;24.732;2024-02-28T01:56:29;19.37;;;7.73;;
8050;SDS011;4068;42.158;24.732;2024-02-28T01:58:55;16.87;;;8.13;;
8050;SDS011;4068;42.158;24.732;2024-02-28T02:01:21;18.83;;;7.80;;
8050;SDS011;4068;42.158;24.732;2024-02-28T02:03:47;23.53;;;7.47;;
8050;SDS011;4068;42.158;24.732;2024-02-28T02:06:13;28.17;;;8.57;;
8050;SDS011;4068;42.158;24.732;2024-02-28T02:08:39;16.70;;;8.10;;
8050;SDS011;4068;42.158;24.732;2024-02-28T02:11:05;19.40;;;7.67;;
8050;SDS011;4068;42.158;24.732;2024-02-28T02:13:31;24.93;;;7.87;;
8050;SDS011;4068;42.158;24.732;2024-02-28T02:15:57;21.20;;;7.90;;
8050;SDS011;4068;42.158;24.732;2024-02-28T02:18:22;15.53;;;7.40;;
8050;SDS011;4068;42.158;24.732;2024-02-28T02:20:52;22.17;;;8.17;;
8050;SDS011;4068;42.158;24.732;2024-02-28T02:23:27;22.00;;;8.03;;
8050;SDS011;4068;42.158;24.732;2024-02-28T02:25:53;27.70;;;8.73;;
8050;SDS011;4068;42.158;24.732;2024-02-28T02:28:18;16.40;;;8.13;;
8050;SDS011;4068;42.158;24.732;2024-02-28T02:30:44;20.37;;;8.13;;
8050;SDS011;4068;42.158;24.732;2024-02-28T02:33:11;16.67;;;7.63;;
8050;SDS011;4068;42.158;24.732;2024-02-28T02:35:37;18.77;;;8.40;;
8050;SDS011;4068;42.158;24.732;2024-02-28T02:38:02;25.60;;;8.43;;
8050;SDS011;4068;42.158;24.732;2024-02-28T02:40:28;23.60;;;8.97;;
8050;SDS011;4068;42.158;24.732;2024-02-28T02:42:53;18.40;;;8.40;;
8050;SDS011;4068;42.158;24.732;2024-02-28T02:45:19;16.83;;;8.07;;
8050;SDS011;4068;42.158;24.732;2024-02-28T02:47:44;24.57;;;9.47;;
8050;SDS011;4068;42.158;24.732;2024-02-28T02:50:10;19.57;;;7.80;;
8050;SDS011;4068;42.158;24.732;2024-02-28T02:52:36;16.10;;;7.47;;
8050;SDS011;4068;42.158;24.732;2024-02-28T02:55:01;21.53;;;8.40;;
8050;SDS011;4068;42.158;24.732;2024-02-28T02:57:27;19.93;;;7.57;;
8050;SDS011;4068;42.158;24.732;2024-02-28T02:59:53;17.63;;;8.33;;
8050;SDS011;4068;42.158;24.732;2024-02-28T03:02:18;16.10;;;7.87;;
8050;SDS011;4068;42.158;24.732;2024-02-28T03:04:44;17.53;;;7.90;;
8050;SDS011;4068;42.158;24.732;2024-02-28T03:07:09;24.43;;;8.83;;
8050;SDS011;4068;42.158;24.732;2024-02-28T03:09:35;20.57;;;8.20;;
8050;SDS011;4068;42.158;24.732;2024-02-28T03:12:00;22.53;;;8.73;;
8050;SDS011;4068;42.158;24.732;2024-02-28T03:14:26;22.90;;;8.40;;
8050;SDS011;4068;42.158;24.732;2024-02-28T03:16:55;20.57;;;9.00;;
8050;SDS011;4068;42.158;24.732;2024-02-28T03:19:20;24.20;;;8.70;;
8050;SDS011;4068;42.158;24.732;2024-02-28T03:21:46;19.17;;;9.00;;
8050;SDS011;4068;42.158;24.732;2024-02-28T03:24:11;19.50;;;8.33;;
8050;SDS011;4068;42.158;24.732;2024-02-28T03:26:37;23.83;;;8.77;;
8050;SDS011;4068;42.158;24.732;2024-02-28T03:29:02;16.30;;;8.40;;
8050;SDS011;4068;42.158;24.732;2024-02-28T03:31:28;23.13;;;8.97;;
8050;SDS011;4068;42.158;24.732;2024-02-28T03:33:53;22.60;;;8.57;;
8050;SDS011;4068;42.158;24.732;2024-02-28T03:36:19;24.97;;;9.20;;
8050;SDS011;4068;42.158;24.732;2024-02-28T03:38:44;26.87;;;8.70;;
8050;SDS011;4068;42.158;24.732;2024-02-28T03:41:10;27.50;;;9.33;;
8050;SDS011;4068;42.158;24.732;2024-02-28T03:43:35;19.73;;;9.17;;
8050;SDS011;4068;42.158;24.732;2024-02-28T03:46:01;26.70;;;9.90;;
8050;SDS011;4068;42.158;24.732;2024-02-28T03:48:27;28.20;;;10.07;;
8050;SDS011;4068;42.158;24.732;2024-02-28T03:50:52;26.60;;;10.00;;
8050;SDS011;4068;42.158;24.732;2024-02-28T03:53:18;32.37;;;10.10;;
8050;SDS011;4068;42.158;24.732;2024-02-28T03:55:43;27.80;;;10.10;;
8050;SDS011;4068;42.158;24.732;2024-02-28T03:58:09;28.37;;;10.63;;
8050;SDS011;4068;42.158;24.732;2024-02-28T04:00:35;26.23;;;10.57;;
8050;SDS011;4068;42.158;24.732;2024-02-28T04:03:01;29.57;;;10.13;;
8050;SDS011;4068;42.158;24.732;2024-02-28T04:05:28;37.33;;;11.07;;
8050;SDS011;4068;42.158;24.732;2024-02-28T04:07:54;25.17;;;9.87;;
8050;SDS011;4068;42.158;24.732;2024-02-28T04:10:19;28.67;;;10.40;;
8050;SDS011;4068;42.158;24.732;2024-02-28T04:12:46;37.23;;;11.00;;
8050;SDS011;4068;42.158;24.732;2024-02-28T04:15:12;22.53;;;10.23;;
8050;SDS011;4068;42.158;24.732;2024-02-28T04:17:38;21.20;;;10.97;;
8050;SDS011;4068;42.158;24.732;2024-02-28T04:20:10;34.90;;;9.73;;
8050;SDS011;4068;42.158;24.732;2024-02-28T04:22:37;29.40;;;10.80;;
8050;SDS011;4068;42.158;24.732;2024-02-28T04:25:06;25.43;;;9.97;;
8050;SDS011;4068;42.158;24.732;2024-02-28T04:27:34;25.10;;;10.60;;
8050;SDS011;4068;42.158;24.732;2024-02-28T04:30:00;25.53;;;11.07;;
8050;SDS011;4068;42.158;24.732;2024-02-28T04:32:25;27.97;;;10.77;;
8050;SDS011;4068;42.158;24.732;2024-02-28T04:34:51;36.23;;;13.07;;
8050;SDS011;4068;42.158;24.732;2024-02-28T04:37:16;36.67;;;14.83;;
8050;SDS011;4068;42.158;24.732;2024-02-28T04:39:42;33.30;;;13.33;;
8050;SDS011;4068;42.158;24.732;2024-02-28T04:42:07;30.07;;;13.53;;
8050;SDS011;4068;42.158;24.732;2024-02-28T04:44:33;27.97;;;13.43;;
8050;SDS011;4068;42.158;24.732;2024-02-28T04:46:59;28.17;;;13.07;;
8050;SDS011;4068;42.158;24.732;2024-02-28T04:49:24;27.77;;;13.50;;
8050;SDS011;4068;42.158;24.732;2024-02-28T04:51:50;38.03;;;14.53;;
8050;SDS011;4068;42.158;24.732;2024-02-28T04:54:15;36.27;;;14.30;;
8050;SDS011;4068;42.158;24.732;2024-02-28T04:56:41;30.60;;;15.50;;
8050;SDS011;4068;42.158;24.732;2024-02-28T04:59:11;32.43;;;15.27;;
8050;SDS011;4068;42.158;24.732;2024-02-28T05:01:37;34.53;;;16.50;;
8050;SDS011;4068;42.158;24.732;2024-02-28T05:04:08;34.53;;;16.33;;
8050;SDS011;4068;42.158;24.732;2024-02-28T05:06:34;44.57;;;17.43;;
8050;SDS011;4068;42.158;24.732;2024-02-28T05:09:00;35.47;;;17.03;;
8050;SDS011;4068;42.158;24.732;2024-02-28T05:11:27;38.53;;;16.97;;
8050;SDS011;4068;42.158;24.732;2024-02-28T05:13:52;35.23;;;17.53;;
8050;SDS011;4068;42.158;24.732;2024-02-28T05:16:18;40.27;;;17.77;;
8050;SDS011;4068;42.158;24.732;2024-02-28T05:18:44;48.83;;;20.30;;
8050;SDS011;4068;42.158;24.732;2024-02-28T05:21:10;45.77;;;19.73;;
8050;SDS011;4068;42.158;24.732;2024-02-28T05:23:36;47.33;;;20.63;;
8050;SDS011;4068;42.158;24.732;2024-02-28T05:26:01;49.40;;;19.97;;
8050;SDS011;4068;42.158;24.732;2024-02-28T05:28:32;43.77;;;21.20;;
8050;SDS011;4068;42.158;24.732;2024-02-28T05:30:59;47.87;;;19.87;;
8050;SDS011;4068;42.158;24.732;2024-02-28T05:33:35;40.37;;;19.40;;
8050;SDS011;4068;42.158;24.732;2024-02-28T05:36:01;37.80;;;19.23;;
8050;SDS011;4068;42.158;24.732;2024-02-28T05:38:26;40.47;;;20.07;;
8050;SDS011;4068;42.158;24.732;2024-02-28T05:40:52;48.57;;;20.50;;
8050;SDS011;4068;42.158;24.732;2024-02-28T05:43:17;42.63;;;21.20;;
8050;SDS011;4068;42.158;24.732;2024-02-28T05:45:43;52.70;;;24.03;;
8050;SDS011;4068;42.158;24.732;2024-02-28T05:48:08;54.73;;;23.07;;
8050;SDS011;4068;42.158;24.732;2024-02-28T05:50:34;54.10;;;22.50;;
8050;SDS011;4068;42.158;24.732;2024-02-28T05:52:59;61.07;;;25.00;;
8050;SDS011;4068;42.158;24.732;2024-02-28T05:55:25;43.20;;;22.50;;
8050;SDS011;4068;42.158;24.732;2024-02-28T05:57:51;48.80;;;23.20;;
8050;SDS011;4068;42.158;24.732;2024-02-28T06:00:16;52.03;;;23.13;;
8050;SDS011;4068;42.158;24.732;2024-02-28T06:02:42;56.87;;;25.17;;
8050;SDS011;4068;42.158;24.732;2024-02-28T06:05:08;58.97;;;24.70;;
8050;SDS011;4068;42.158;24.732;2024-02-28T06:07:33;52.40;;;24.30;;
8050;SDS011;4068;42.158;24.732;2024-02-28T06:09:59;49.03;;;23.17;;
8050;SDS011;4068;42.158;24.732;2024-02-28T06:12:24;60.67;;;23.53;;
8050;SDS011;4068;42.158;24.732;2024-02-28T06:14:50;48.20;;;21.93;;
8050;SDS011;4068;42.158;24.732;2024-02-28T06:17:15;55.90;;;24.03;;
8050;SDS011;4068;42.158;24.732;2024-02-28T06:19:41;48.93;;;22.23;;
8050;SDS011;4068;42.158;24.732;2024-02-28T06:22:07;46.03;;;22.40;;
8050;SDS011;4068;42.158;24.732;2024-02-28T06:24:35;50.27;;;20.77;;
8050;SDS011;4068;42.158;24.732;2024-02-28T06:27:00;47.20;;;20.03;;
8050;SDS011;4068;42.158;24.732;2024-02-28T06:29:26;41.87;;;19.53;;
8050;SDS011;4068;42.158;24.732;2024-02-28T06:31:52;38.37;;;18.13;;
8050;SDS011;4068;42.158;24.732;2024-02-28T06:34:17;42.40;;;17.13;;
8050;SDS011;4068;42.158;24.732;2024-02-28T06:36:43;26.35;;;15.20;;
8050;SDS011;4068;42.158;24.732;2024-02-28T06:39:09;39.28;;;17.83;;
8050;SDS011;4068;42.158;24.732;2024-02-28T06:41:34;33.67;;;16.45;;
8050;SDS011;4068;42.158;24.732;2024-02-28T06:44:00;39.92;;;17.63;;
8050;SDS011;4068;42.158;24.732;2024-02-28T06:46:26;42.85;;;21.30;;
8050;SDS011;4068;42.158;24.732;2024-02-28T06:48:51;44.40;;;20.25;;
8050;SDS011;4068;42.158;24.732;2024-02-28T06:51:17;46.90;;;20.92;;
8050;SDS011;4068;42.158;24.732;2024-02-28T06:53:43;38.83;;;19.70;;
8050;SDS011;4068;42.158;24.732;2024-02-28T06:56:08;41.00;;;20.52;;
8050;SDS011;4068;42.158;24.732;2024-02-28T06:58:34;49.00;;;20.02;;
8050;SDS011;4068;42.158;24.732;2024-02-28T07:00:59;40.40;;;18.20;;
8050;SDS011;4068;42.158;24.732;2024-02-28T07:03:25;38.95;;;15.15;;
8050;SDS011;4068;42.158;24.732;2024-02-28T07:05:51;32.22;;;15.63;;
8050;SDS011;4068;42.158;24.732;2024-02-28T07:08:18;41.45;;;16.42;;
8050;SDS011;4068;42.158;24.732;2024-02-28T07:10:43;34.63;;;15.32;;
8050;SDS011;4068;42.158;24.732;2024-02-28T07:13:12;36.08;;;15.60;;
8050;SDS011;4068;42.158;24.732;2024-02-28T07:15:38;43.20;;;17.73;;
8050;SDS011;4068;42.158;24.732;2024-02-28T07:18:06;32.25;;;14.50;;
8050;SDS011;4068;42.158;24.732;2024-02-28T07:20:32;35.58;;;14.52;;
8050;SDS011;4068;42.158;24.732;2024-02-28T07:22:58;44.38;;;17.45;;
8050;SDS011;4068;42.158;24.732;2024-02-28T07:25:23;40.92;;;17.65;;
8050;SDS011;4068;42.158;24.732;2024-02-28T07:27:49;44.40;;;16.02;;
8050;SDS011;4068;42.158;24.732;2024-02-28T07:30:14;38.78;;;17.05;;
8050;SDS011;4068;42.158;24.732;2024-02-28T07:32:40;37.55;;;17.85;;
8050;SDS011;4068;42.158;24.732;2024-02-28T07:35:05;34.72;;;16.42;;
8050;SDS011;4068;42.158;24.732;2024-02-28T07:37:31;43.40;;;18.13;;
8050;SDS011;4068;42.158;24.732;2024-02-28T07:39:57;53.92;;;19.67;;
8050;SDS011;4068;42.158;24.732;2024-02-28T07:42:22;38.75;;;18.50;;
8050;SDS011;4068;42.158;24.732;2024-02-28T07:44:48;32.90;;;18.95;;
8050;SDS011;4068;42.158;24.732;2024-02-28T07:47:18;36.70;;;17.48;;
8050;SDS011;4068;42.158;24.732;2024-02-28T07:49:44;34.97;;;18.13;;
8050;SDS011;4068;42.158;24.732;2024-02-28T07:52:10;38.10;;;18.35;;
8050;SDS011;4068;42.158;24.732;2024-02-28T07:54:35;40.88;;;18.52;;
8050;SDS011;4068;42.158;24.732;2024-02-28T07:57:02;42.97;;;20.85;;
8050;SDS011;4068;42.158;24.732;2024-02-28T07:59:27;52.65;;;20.83;;
8050;SDS011;4068;42.158;24.732;2024-02-28T08:01:53;45.45;;;20.58;;
8050;SDS011;4068;42.158;24.732;2024-02-28T08:04:18;41.08;;;20.10;;
8050;SDS011;4068;42.158;24.732;2024-02-28T08:06:44;48.88;;;21.80;;
8050;SDS011;4068;42.158;24.732;2024-02-28T08:09:09;45.35;;;21.65;;
8050;SDS011;4068;42.158;24.732;2024-02-28T08:11:35;42.85;;;20.13;;
8050;SDS011;4068;42.158;24.732;2024-02-28T08:14:00;46.08;;;19.60;;
8050;SDS011;4068;42.158;24.732;2024-02-28T08:16:26;39.50;;;20.05;;
8050;SDS011;4068;42.158;24.732;2024-02-28T08:18:51;47.88;;;20.92;;
8050;SDS011;4068;42.158;24.732;2024-02-28T08:21:17;50.15;;;21.63;;
8050;SDS011;4068;42.158;24.732;2024-02-28T08:23:43;49.28;;;21.75;;
8050;SDS011;4068;42.158;24.732;2024-02-28T08:26:08;44.30;;;21.58;;
8050;SDS011;4068;42.158;24.732;2024-02-28T08:28:34;49.80;;;22.02;;
8050;SDS011;4068;42.158;24.732;2024-02-28T08:30:59;44.03;;;21.55;;
8050;SDS011;4068;42.158;24.732;2024-02-28T08:33:25;40.05;;;20.45;;
8050;SDS011;4068;42.158;24.732;2024-02-28T08:35:50;33.65;;;18.58;;
8050;SDS011;4068;42.158;24.732;2024-02-28T08:38:16;45.33;;;18.75;;
8050;SDS011;4068;42.158;24.732;2024-02-28T08:40:42;38.50;;;18.58;;
8050;SDS011;4068;42.158;24.732;2024-02-28T08:43:07;44.42;;;17.95;;
8050;SDS011;4068;42.158;24.732;2024-02-28T08:45:33;40.97;;;17.15;;
8050;SDS011;4068;42.158;24.732;2024-02-28T08:47:59;43.78;;;17.38;;
8050;SDS011;4068;42.158;24.732;2024-02-28T08:50:26;45.13;;;15.65;;
8050;SDS011;4068;42.158;24.732;2024-02-28T08:52:53;38.60;;;15.75;;
8050;SDS011;4068;42.158;24.732;2024-02-28T08:55:18;36.55;;;15.90;;
8050;SDS011;4068;42.158;24.732;2024-02-28T08:57:45;32.78;;;15.38;;
8050;SDS011;4068;42.158;24.732;2024-02-28T09:00:11;36.47;;;16.25;;
8050;SDS011;4068;42.158;24.732;2024-02-28T09:02:37;43.00;;;16.35;;
8050;SDS011;4068;42.158;24.732;2024-02-28T09:05:03;33.75;;;16.90;;
8050;SDS011;4068;42.158;24.732;2024-02-28T09:07:29;34.15;;;16.45;;
8050;SDS011;4068;42.158;24.732;2024-02-28T09:09:55;35.25;;;14.88;;
8050;SDS011;4068;42.158;24.732;2024-02-28T09:12:20;40.33;;;16.90;;
8050;SDS011;4068;42.158;24.732;2024-02-28T09:14:46;38.80;;;15.90;;
8050;SDS011;4068;42.158;24.732;2024-02-28T09:17:12;33.67;;;16.40;;
8050;SDS011;4068;42.158;24.732;2024-02-28T09:19:38;33.90;;;16.05;;
8050;SDS011;4068;42.158;24.732;2024-02-28T09:22:03;36.97;;;15.52;;
8050;SDS011;4068;42.158;24.732;2024-02-28T09:24:29;35.60;;;15.77;;
8050;SDS011;4068;42.158;24.732;2024-02-28T09:26:54;33.83;;;14.27;;
8050;SDS011;4068;42.158;24.732;2024-02-28T09:29:20;35.40;;;17.75;;
8050;SDS011;4068;42.158;24.732;2024-02-28T09:31:45;34.05;;;16.30;;
8050;SDS011;4068;42.158;24.732;2024-02-28T09:34:11;35.65;;;16.92;;
8050;SDS011;4068;42.158;24.732;2024-02-28T09:36:40;40.72;;;16.92;;
8050;SDS011;4068;42.158;24.732;2024-02-28T09:39:10;33.58;;;16.58;;
8050;SDS011;4068;42.158;24.732;2024-02-28T09:41:40;38.20;;;18.40;;
8050;SDS011;4068;42.158;24.732;2024-02-28T09:44:06;41.17;;;16.05;;
8050;SDS011;4068;42.158;24.732;2024-02-28T09:46:32;34.97;;;16.75;;
8050;SDS011;4068;42.158;24.732;2024-02-28T09:49:04;35.03;;;17.27;;
8050;SDS011;4068;42.158;24.732;2024-02-28T09:51:34;34.47;;;16.98;;
8050;SDS011;4068;42.158;24.732;2024-02-28T09:54:03;32.05;;;16.20;;
8050;SDS011;4068;42.158;24.732;2024-02-28T09:56:30;34.45;;;15.63;;
8050;SDS011;4068;42.158;24.732;2024-02-28T09:58:56;30.40;;;14.95;;
8050;SDS011;4068;42.158;24.732;2024-02-28T10:01:22;36.08;;;15.48;;
8050;SDS011;4068;42.158;24.732;2024-02-28T10:03:49;30.27;;;14.48;;
8050;SDS011;4068;42.158;24.732;2024-02-28T10:06:17;31.00;;;14.77;;
8050;SDS011;4068;42.158;24.732;2024-02-28T10:08:43;29.08;;;14.48;;
8050;SDS011;4068;42.158;24.732;2024-02-28T10:11:16;35.35;;;14.80;;
8050;SDS011;4068;42.158;24.732;2024-02-28T10:13:43;38.88;;;15.88;;
8050;SDS011;4068;42.158;24.732;2024-02-28T10:16:08;29.38;;;13.88;;
8050;SDS011;4068;42.158;24.732;2024-02-28T10:18:34;29.35;;;14.38;;
8050;SDS011;4068;42.158;24.732;2024-02-28T10:20:59;33.85;;;15.35;;
8050;SDS011;4068;42.158;24.732;2024-02-28T10:23:25;43.28;;;14.73;;
8050;SDS011;4068;42.158;24.732;2024-02-28T10:25:52;40.30;;;16.17;;
8050;SDS011;4068;42.158;24.732;2024-02-28T10:28:17;30.70;;;14.35;;
8050;SDS011;4068;42.158;24.732;2024-02-28T10:30:43;32.95;;;14.95;;
8050;SDS011;4068;42.158;24.732;2024-02-28T10:33:10;32.70;;;14.38;;
8050;SDS011;4068;42.158;24.732;2024-02-28T10:35:37;29.13;;;13.73;;
8050;SDS011;4068;42.158;24.732;2024-02-28T10:38:02;24.05;;;13.10;;
8050;SDS011;4068;42.158;24.732;2024-02-28T10:40:29;27.90;;;13.77;;
8050;SDS011;4068;42.158;24.732;2024-02-28T10:42:54;26.80;;;13.40;;
8050;SDS011;4068;42.158;24.732;2024-02-28T10:45:22;23.60;;;13.45;;
8050;SDS011;4068;42.158;24.732;2024-02-28T10:47:50;32.05;;;13.98;;
8050;SDS011;4068;42.158;24.732;2024-02-28T10:50:16;29.65;;;14.93;;
8050;SDS011;4068;42.158;24.732;2024-02-28T10:52:45;34.10;;;16.13;;
8050;SDS011;4068;42.158;24.732;2024-02-28T10:55:18;33.05;;;16.23;;
8050;SDS011;4068;42.158;24.732;2024-02-28T10:57:53;36.60;;;15.50;;
8050;SDS011;4068;42.158;24.732;2024-02-28T11:00:27;33.88;;;15.27;;
8050;SDS011;4068;42.158;24.732;2024-02-28T11:02:53;30.15;;;15.05;;
8050;SDS011;4068;42.158;24.732;2024-02-28T11:05:19;28.80;;;14.65;;
8050;SDS011;4068;42.158;24.732;2024-02-28T11:07:45;30.38;;;14.13;;
8050;SDS011;4068;42.158;24.732;2024-02-28T11:10:10;31.30;;;15.68;;
8050;SDS011;4068;42.158;24.732;2024-02-28T11:12:37;27.35;;;13.48;;
8050;SDS011;4068;42.158;24.732;2024-02-28T11:15:03;25.05;;;13.10;;
8050;SDS011;4068;42.158;24.732;2024-02-28T11:17:32;38.97;;;14.65;;
8050;SDS011;4068;42.158;24.732;2024-02-28T11:19:58;33.80;;;14.63;;
8050;SDS011;4068;42.158;24.732;2024-02-28T11:22:27;31.65;;;14.93;;
8050;SDS011;4068;42.158;24.732;2024-02-28T11:24:53;32.95;;;14.32;;
8050;SDS011;4068;42.158;24.732;2024-02-28T11:27:20;25.15;;;13.75;;
8050;SDS011;4068;42.158;24.732;2024-02-28T11:29:46;26.08;;;13.68;;
8050;SDS011;4068;42.158;24.732;2024-02-28T11:32:15;33.35;;;14.10;;
8050;SDS011;4068;42.158;24.732;2024-02-28T11:34:41;21.88;;;13.13;;
8050;SDS011;4068;42.158;24.732;2024-02-28T11:37:09;27.75;;;15.10;;
8050;SDS011;4068;42.158;24.732;2024-02-28T11:39:34;28.60;;;14.27;;
8050;SDS011;4068;42.158;24.732;2024-02-28T11:42:12;24.17;;;14.20;;
8050;SDS011;4068;42.158;24.732;2024-02-28T11:44:39;27.25;;;14.30;;
8050;SDS011;4068;42.158;24.732;2024-02-28T11:47:05;24.25;;;13.45;;
8050;SDS011;4068;42.158;24.732;2024-02-28T11:49:35;21.27;;;12.68;;
8050;SDS011;4068;42.158;24.732;2024-02-28T11:52:01;23.25;;;13.65;;
8050;SDS011;4068;42.158;24.732;2024-02-28T11:54:26;25.20;;;12.45;;
8050;SDS011;4068;42.158;24.732;2024-02-28T11:56:52;20.65;;;10.93;;
8050;SDS011;4068;42.158;24.732;2024-02-28T11:59:18;20.38;;;11.55;;
8050;SDS011;4068;42.158;24.732;2024-02-28T12:01:44;33.78;;;13.00;;
8050;SDS011;4068;42.158;24.732;2024-02-28T12:04:11;32.10;;;12.55;;
8050;SDS011;4068;42.158;24.732;2024-02-28T12:06:37;25.95;;;12.07;;
8050;SDS011;4068;42.158;24.732;2024-02-28T12:09:03;27.67;;;12.32;;
8050;SDS011;4068;42.158;24.732;2024-02-28T12:11:30;24.60;;;12.07;;
8050;SDS011;4068;42.158;24.732;2024-02-28T12:13:56;23.98;;;11.52;;
8050;SDS011;4068;42.158;24.732;2024-02-28T12:16:23;28.35;;;13.50;;
8050;SDS011;4068;42.158;24.732;2024-02-28T12:18:49;25.88;;;11.73;;
8050;SDS011;4068;42.158;24.732;2024-02-28T12:21:16;21.58;;;11.23;;
8050;SDS011;4068;42.158;24.732;2024-02-28T12:23:41;20.67;;;9.68;;
8050;SDS011;4068;42.158;24.732;2024-02-28T12:26:07;18.40;;;10.13;;
8050;SDS011;4068;42.158;24.732;2024-02-28T12:28:32;16.58;;;9.70;;
8050;SDS011;4068;42.158;24.732;2024-02-28T12:30:58;20.92;;;9.88;;
8050;SDS011;4068;42.158;24.732;2024-02-28T12:33:23;18.38;;;10.15;;
8050;SDS011;4068;42.158;24.732;2024-02-28T12:35:49;19.05;;;11.30;;
8050;SDS011;4068;42.158;24.732;2024-02-28T12:38:14;17.23;;;9.98;;
8050;SDS011;4068;42.158;24.732;2024-02-28T12:40:41;21.52;;;9.80;;
8050;SDS011;4068;42.158;24.732;2024-02-28T12:43:07;22.05;;;10.20;;
8050;SDS011;4068;42.158;24.732;2024-02-28T12:45:33;21.20;;;11.10;;
8050;SDS011;4068;42.158;24.732;2024-02-28T12:47:58;23.13;;;10.52;;
8050;SDS011;4068;42.158;24.732;2024-02-28T12:50:26;23.77;;;10.00;;
8050;SDS011;4068;42.158;24.732;2024-02-28T12:52:52;17.15;;;10.63;;
8050;SDS011;4068;42.158;24.732;2024-02-28T12:55:20;14.10;;;9.63;;
8050;SDS011;4068;42.158;24.732;2024-02-28T12:57:46;24.70;;;12.27;;
8050;SDS011;4068;42.158;24.732;2024-02-28T13:00:12;22.00;;;10.60;;
8050;SDS011;4068;42.158;24.732;2024-02-28T13:02:38;19.27;;;10.00;;
8050;SDS011;4068;42.158;24.732;2024-02-28T13:05:04;24.05;;;10.95;;
8050;SDS011;4068;42.158;24.732;2024-02-28T13:07:30;21.15;;;10.35;;
8050;SDS011;4068;42.158;24.732;2024-02-28T13:09:55;20.25;;;11.50;;
8050;SDS011;4068;42.158;24.732;2024-02-28T13:12:21;22.88;;;10.98;;
8050;SDS011;4068;42.158;24.732;2024-02-28T13:14:47;17.65;;;10.68;;
8050;SDS011;4068;42.158;24.732;2024-02-28T13:17:13;20.08;;;10.55;;
8050;SDS011;4068;42.158;24.732;2024-02-28T13:19:40;27.60;;;11.45;;
8050;SDS011;4068;42.158;24.732;2024-02-28T13:22:05;18.42;;;10.45;;
8050;SDS011;4068;42.158;24.732;2024-02-28T13:24:31;20.20;;;10.73;;
8050;SDS011;4068;42.158;24.732;2024-02-28T13:26:56;20.00;;;10.00;;
8050;SDS011;4068;42.158;24.732;2024-02-28T13:29:22;22.38;;;11.20;;
8050;SDS011;4068;42.158;24.732;2024-02-28T13:31:47;21.70;;;10.23;;
8050;SDS011;4068;42.158;24.732;2024-02-28T13:34:13;24.23;;;10.70;;
8050;SDS011;4068;42.158;24.732;2024-02-28T13:36:38;21.20;;;11.23;;
8050;SDS011;4068;42.158;24.732;2024-02-28T13:39:07;18.35;;;9.95;;
8050;SDS011;4068;42.158;24.732;2024-02-28T13:41:34;18.40;;;10.32;;
8050;SDS011;4068;42.158;24.732;2024-02-28T13:44:00;17.58;;;11.23;;
8050;SDS011;4068;42.158;24.732;2024-02-28T13:46:25;19.02;;;10.80;;
8050;SDS011;4068;42.158;24.732;2024-02-28T13:48:51;22.23;;;10.35;;
8050;SDS011;4068;42.158;24.732;2024-02-28T13:51:16;21.63;;;10.85;;
8050;SDS011;4068;42.158;24.732;2024-02-28T13:53:42;22.65;;;11.55;;
8050;SDS011;4068;42.158;24.732;2024-02-28T13:56:07;20.65;;;10.77;;
8050;SDS011;4068;42.158;24.732;2024-02-28T13:58:33;25.35;;;12.57;;
8050;SDS011;4068;42.158;24.732;2024-02-28T14:00:58;19.48;;;10.73;;
8050;SDS011;4068;42.158;24.732;2024-02-28T14:03:24;21.33;;;10.70;;
8050;SDS011;4068;42.158;24.732;2024-02-28T14:05:50;22.05;;;11.52;;
8050;SDS011;4068;42.158;24.732;2024-02-28T14:08:17;22.85;;;11.43;;
8050;SDS011;4068;42.158;24.732;2024-02-28T14:10:43;22.67;;;11.30;;
8050;SDS011;4068;42.158;24.732;2024-02-28T14:13:08;23.08;;;12.05;;
8050;SDS011;4068;42.158;24.732;2024-02-28T14:15:36;25.02;;;11.82;;
8050;SDS011;4068;42.158;24.732;2024-02-28T14:18:02;23.70;;;11.73;;
8050;SDS011;4068;42.158;24.732;2024-02-28T14:20:28;19.08;;;10.88;;
8050;SDS011;4068;42.158;24.732;2024-02-28T14:22:54;23.02;;;12.15;;
8050;SDS011;4068;42.158;24.732;2024-02-28T14:25:21;21.20;;;12.63;;
8050;SDS011;4068;42.158;24.732;2024-02-28T14:27:47;20.00;;;11.82;;
8050;SDS011;4068;42.158;24.732;2024-02-28T14:30:13;23.67;;;12.27;;
8050;SDS011;4068;42.158;24.732;2024-02-28T14:32:39;21.52;;;11.75;;